sensor_id;sensor_type;location;lat;lon;timestamp;temperature;humidity
2447;DHT22;26430;48.818;9.244;2023-11-18T00:00:08;5.70;99.90
2447;DHT22;26430;48.818;9.244;2023-11-18T00:02:38;5.80;99.90
2447;DHT22;26430;48.818;9.244;2023-11-18T00:05:04;5.70;99.90
2447;DHT22;26430;48.818;9.244;2023-11-18T00:07:32;5.80;99.90
2447;DHT22;26430;48.818;9.244;2023-11-18T00:09:58;5.80;99.90
2447;DHT22;26430;48.818;9.244;2023-11-18T00:12:23;5.80;99.90
2447;DHT22;26430;48.818;9.244;2023-11-18T00:14:49;5.70;99.90
2447;DHT22;26430;48.818;9.244;2023-11-18T00:17:15;5.80;99.90
2447;DHT22;26430;48.818;9.244;2023-11-18T00:19:41;5.90;99.90
2447;DHT22;26430;48.818;9.244;2023-11-18T00:22:08;6.00;99.90
2447;DHT22;26430;48.818;9.244;2023-11-18T00:24:33;6.00;99.90
2447;DHT22;26430;48.818;9.244;2023-11-18T00:27:02;6.00;99.90
2447;DHT22;26430;48.818;9.244;2023-11-18T00:29:34;5.90;99.90
2447;DHT22;26430;48.818;9.244;2023-11-18T00:32:01;5.90;99.90
2447;DHT22;26430;48.818;9.244;2023-11-18T00:34:28;5.70;99.90
2447;DHT22;26430;48.818;9.244;2023-11-18T00:36:55;5.80;99.90
2447;DHT22;26430;48.818;9.244;2023-11-18T00:39:23;5.80;99.90
2447;DHT22;26430;48.818;9.244;2023-11-18T00:41:48;5.80;99.90
2447;DHT22;26430;48.818;9.244;2023-11-18T00:44:14;5.80;99.90
2447;DHT22;26430;48.818;9.244;2023-11-18T00:46:40;5.90;99.90
2447;DHT22;26430;48.818;9.244;2023-11-18T00:49:05;5.80;99.90
2447;DHT22;26430;48.818;9.244;2023-11-18T00:51:31;5.70;99.90
2447;DHT22;26430;48.818;9.244;2023-11-18T00:53:57;5.80;99.90
2447;DHT22;26430;48.818;9.244;2023-11-18T00:56:23;5.90;99.90
2447;DHT22;26430;48.818;9.244;2023-11-18T00:58:49;6.00;99.90
2447;DHT22;26430;48.818;9.244;2023-11-18T01:01:15;6.20;99.90
2447;DHT22;26430;48.818;9.244;2023-11-18T01:03:46;6.20;99.90
2447;DHT22;26430;48.818;9.244;2023-11-18T01:06:13;6.30;99.90
2447;DHT22;26430;48.818;9.244;2023-11-18T01:08:43;6.30;99.90
2447;DHT22;26430;48.818;9.244;2023-11-18T01:11:09;6.20;99.90
2447;DHT22;26430;48.818;9.244;2023-11-18T01:13:35;6.10;99.90
2447;DHT22;26430;48.818;9.244;2023-11-18T01:16:00;6.10;99.90
2447;DHT22;26430;48.818;9.244;2023-11-18T01:18:27;6.00;99.90
2447;DHT22;26430;48.818;9.244;2023-11-18T01:20:53;6.00;99.90
2447;DHT22;26430;48.818;9.244;2023-11-18T01:23:18;5.90;99.90
2447;DHT22;26430;48.818;9.244;2023-11-18T01:25:44;6.00;99.90
2447;DHT22;26430;48.818;9.244;2023-11-18T01:28:09;6.00;99.90
2447;DHT22;26430;48.818;9.244;2023-11-18T01:30:35;6.10;99.90
2447;DHT22;26430;48.818;9.244;2023-11-18T01:33:02;6.20;99.90
2447;DHT22;26430;48.818;9.244;2023-11-18T01:35:27;6.20;99.90
2447;DHT22;26430;48.818;9.244;2023-11-18T01:37:54;6.30;99.90
2447;DHT22;26430;48.818;9.244;2023-11-18T01:40:22;6.30;99.90
2447;DHT22;26430;48.818;9.244;2023-11-18T01:42:49;6.40;99.90
2447;DHT22;26430;48.818;9.244;2023-11-18T01:45:15;6.50;99.90
2447;DHT22;26430;48.818;9.244;2023-11-18T01:47:42;6.60;99.90
2447;DHT22;26430;48.818;9.244;2023-11-18T01:50:10;6.80;99.90
2447;DHT22;26430;48.818;9.244;2023-11-18T01:52:38;6.80;99.90
2447;DHT22;26430;48.818;9.244;2023-11-18T01:55:05;6.50;99.90
2447;DHT22;26430;48.818;9.244;2023-11-18T01:57:33;6.40;99.90
2447;DHT22;26430;48.818;9.244;2023-11-18T01:59:59;6.30;99.90
2447;DHT22;26430;48.818;9.244;2023-11-18T02:02:26;6.40;99.90
2447;DHT22;26430;48.818;9.244;2023-11-18T02:04:51;6.40;99.90
2447;DHT22;26430;48.818;9.244;2023-11-18T02:07:18;6.30;99.90
2447;DHT22;26430;48.818;9.244;2023-11-18T02:09:44;6.10;99.90
2447;DHT22;26430;48.818;9.244;2023-11-18T02:14:50;6.20;99.90
2447;DHT22;26430;48.818;9.244;2023-11-18T02:17:20;6.20;99.90
2447;DHT22;26430;48.818;9.244;2023-11-18T02:19:48;6.20;99.90
2447;DHT22;26430;48.818;9.244;2023-11-18T02:22:15;6.20;99.90
2447;DHT22;26430;48.818;9.244;2023-11-18T02:24:40;6.30;99.90
2447;DHT22;26430;48.818;9.244;2023-11-18T02:27:06;6.30;99.90
2447;DHT22;26430;48.818;9.244;2023-11-18T02:29:37;6.20;99.90
2447;DHT22;26430;48.818;9.244;2023-11-18T02:32:13;6.20;99.90
2447;DHT22;26430;48.818;9.244;2023-11-18T02:34:45;6.20;99.90
2447;DHT22;26430;48.818;9.244;2023-11-18T02:37:14;6.30;99.90
2447;DHT22;26430;48.818;9.244;2023-11-18T02:39:45;6.20;99.90
2447;DHT22;26430;48.818;9.244;2023-11-18T02:42:15;6.30;99.90
2447;DHT22;26430;48.818;9.244;2023-11-18T02:44:41;6.40;99.90
2447;DHT22;26430;48.818;9.244;2023-11-18T02:47:08;6.40;99.90
2447;DHT22;26430;48.818;9.244;2023-11-18T02:49:35;6.40;99.90
2447;DHT22;26430;48.818;9.244;2023-11-18T02:52:01;6.40;99.90
2447;DHT22;26430;48.818;9.244;2023-11-18T02:54:26;6.50;99.90
2447;DHT22;26430;48.818;9.244;2023-11-18T02:56:52;6.40;99.90
2447;DHT22;26430;48.818;9.244;2023-11-18T02:59:18;6.40;99.90
2447;DHT22;26430;48.818;9.244;2023-11-18T03:01:43;6.40;99.90
2447;DHT22;26430;48.818;9.244;2023-11-18T03:04:10;6.40;99.90
2447;DHT22;26430;48.818;9.244;2023-11-18T03:06:35;6.40;99.90
2447;DHT22;26430;48.818;9.244;2023-11-18T03:09:02;6.40;99.90
2447;DHT22;26430;48.818;9.244;2023-11-18T03:11:33;6.50;99.90
2447;DHT22;26430;48.818;9.244;2023-11-18T03:13:58;6.70;99.90
2447;DHT22;26430;48.818;9.244;2023-11-18T03:16:24;6.90;99.90
2447;DHT22;26430;48.818;9.244;2023-11-18T03:18:50;6.80;99.90
2447;DHT22;26430;48.818;9.244;2023-11-18T03:21:16;6.60;99.90
2447;DHT22;26430;48.818;9.244;2023-11-18T03:23:42;6.50;99.90
2447;DHT22;26430;48.818;9.244;2023-11-18T03:26:08;6.50;99.90
2447;DHT22;26430;48.818;9.244;2023-11-18T03:28:35;6.40;99.90
2447;DHT22;26430;48.818;9.244;2023-11-18T03:31:02;6.40;99.90
2447;DHT22;26430;48.818;9.244;2023-11-18T03:33:29;6.30;99.90
2447;DHT22;26430;48.818;9.244;2023-11-18T03:35:54;6.20;99.90
2447;DHT22;26430;48.818;9.244;2023-11-18T03:38:21;6.20;99.90
2447;DHT22;26430;48.818;9.244;2023-11-18T03:40:47;6.10;99.90
2447;DHT22;26430;48.818;9.244;2023-11-18T03:43:13;6.00;99.90
2447;DHT22;26430;48.818;9.244;2023-11-18T03:45:39;6.00;99.90
2447;DHT22;26430;48.818;9.244;2023-11-18T03:48:06;5.90;99.90
2447;DHT22;26430;48.818;9.244;2023-11-18T03:50:33;6.00;99.90
2447;DHT22;26430;48.818;9.244;2023-11-18T03:52:58;5.90;99.90
2447;DHT22;26430;48.818;9.244;2023-11-18T03:55:24;5.90;99.90
2447;DHT22;26430;48.818;9.244;2023-11-18T03:57:51;5.80;99.90
2447;DHT22;26430;48.818;9.244;2023-11-18T04:00:17;5.70;99.90
2447;DHT22;26430;48.818;9.244;2023-11-18T04:02:43;5.60;99.90
2447;DHT22;26430;48.818;9.244;2023-11-18T04:05:11;5.50;99.90
2447;DHT22;26430;48.818;9.244;2023-11-18T04:07:37;5.70;99.90
2447;DHT22;26430;48.818;9.244;2023-11-18T04:10:03;5.80;99.90
2447;DHT22;26430;48.818;9.244;2023-11-18T04:12:32;5.90;99.90
2447;DHT22;26430;48.818;9.244;2023-11-18T04:14:58;5.80;99.90
2447;DHT22;26430;48.818;9.244;2023-11-18T04:17:23;5.90;99.90
2447;DHT22;26430;48.818;9.244;2023-11-18T04:19:53;5.90;99.90
2447;DHT22;26430;48.818;9.244;2023-11-18T04:22:21;5.90;99.90
2447;DHT22;26430;48.818;9.244;2023-11-18T04:24:47;5.80;99.90
2447;DHT22;26430;48.818;9.244;2023-11-18T04:27:13;5.80;99.90
2447;DHT22;26430;48.818;9.244;2023-11-18T04:29:38;5.90;99.90
2447;DHT22;26430;48.818;9.244;2023-11-18T04:32:06;6.00;99.90
2447;DHT22;26430;48.818;9.244;2023-11-18T04:34:35;6.00;99.90
2447;DHT22;26430;48.818;9.244;2023-11-18T04:37:02;6.10;99.90
2447;DHT22;26430;48.818;9.244;2023-11-18T04:39:27;6.10;99.90
2447;DHT22;26430;48.818;9.244;2023-11-18T04:41:55;6.20;99.90
2447;DHT22;26430;48.818;9.244;2023-11-18T04:44:22;5.80;99.90
2447;DHT22;26430;48.818;9.244;2023-11-18T04:46:47;5.70;99.90
2447;DHT22;26430;48.818;9.244;2023-11-18T04:49:13;5.60;99.90
2447;DHT22;26430;48.818;9.244;2023-11-18T04:51:38;5.70;99.90
2447;DHT22;26430;48.818;9.244;2023-11-18T04:54:04;5.40;99.90
2447;DHT22;26430;48.818;9.244;2023-11-18T04:56:33;5.40;99.90
2447;DHT22;26430;48.818;9.244;2023-11-18T04:59:00;5.30;99.90
2447;DHT22;26430;48.818;9.244;2023-11-18T05:01:26;5.40;99.90
2447;DHT22;26430;48.818;9.244;2023-11-18T05:03:51;5.20;99.90
2447;DHT22;26430;48.818;9.244;2023-11-18T05:06:17;5.20;99.90
2447;DHT22;26430;48.818;9.244;2023-11-18T05:08:45;5.20;99.90
2447;DHT22;26430;48.818;9.244;2023-11-18T05:11:11;5.40;99.90
2447;DHT22;26430;48.818;9.244;2023-11-18T05:13:38;5.50;99.90
2447;DHT22;26430;48.818;9.244;2023-11-18T05:16:05;5.60;99.90
2447;DHT22;26430;48.818;9.244;2023-11-18T05:18:31;5.50;99.90
2447;DHT22;26430;48.818;9.244;2023-11-18T05:21:01;5.50;99.90
2447;DHT22;26430;48.818;9.244;2023-11-18T05:23:28;5.40;99.90
2447;DHT22;26430;48.818;9.244;2023-11-18T05:25:54;5.30;99.90
2447;DHT22;26430;48.818;9.244;2023-11-18T05:28:21;5.30;99.90
2447;DHT22;26430;48.818;9.244;2023-11-18T05:30:47;5.30;99.90
2447;DHT22;26430;48.818;9.244;2023-11-18T05:33:13;5.40;99.90
2447;DHT22;26430;48.818;9.244;2023-11-18T05:35:46;5.40;99.90
2447;DHT22;26430;48.818;9.244;2023-11-18T05:38:18;5.40;99.90
2447;DHT22;26430;48.818;9.244;2023-11-18T05:40:53;5.40;99.90
2447;DHT22;26430;48.818;9.244;2023-11-18T05:43:26;5.40;99.90
2447;DHT22;26430;48.818;9.244;2023-11-18T05:45:56;5.40;99.90
2447;DHT22;26430;48.818;9.244;2023-11-18T05:48:44;5.40;99.90
2447;DHT22;26430;48.818;9.244;2023-11-18T05:51:10;5.50;99.90
2447;DHT22;26430;48.818;9.244;2023-11-18T05:53:40;5.50;99.90
2447;DHT22;26430;48.818;9.244;2023-11-18T05:56:07;5.70;99.90
2447;DHT22;26430;48.818;9.244;2023-11-18T05:58:32;5.70;99.90
2447;DHT22;26430;48.818;9.244;2023-11-18T06:00:58;5.70;99.90
2447;DHT22;26430;48.818;9.244;2023-11-18T06:03:24;5.70;99.90
2447;DHT22;26430;48.818;9.244;2023-11-18T06:05:50;5.70;99.90
2447;DHT22;26430;48.818;9.244;2023-11-18T06:08:16;5.50;99.90
2447;DHT22;26430;48.818;9.244;2023-11-18T06:10:42;5.60;99.90
2447;DHT22;26430;48.818;9.244;2023-11-18T06:13:10;5.70;99.90
2447;DHT22;26430;48.818;9.244;2023-11-18T06:15:38;5.60;99.90
2447;DHT22;26430;48.818;9.244;2023-11-18T06:18:04;5.50;99.90
2447;DHT22;26430;48.818;9.244;2023-11-18T06:20:30;5.50;99.90
2447;DHT22;26430;48.818;9.244;2023-11-18T06:22:58;5.20;99.90
2447;DHT22;26430;48.818;9.244;2023-11-18T06:25:24;4.80;99.90
2447;DHT22;26430;48.818;9.244;2023-11-18T06:27:51;4.70;99.90
2447;DHT22;26430;48.818;9.244;2023-11-18T06:30:18;4.80;99.90
2447;DHT22;26430;48.818;9.244;2023-11-18T06:32:45;4.70;99.90
2447;DHT22;26430;48.818;9.244;2023-11-18T06:35:12;4.60;99.90
2447;DHT22;26430;48.818;9.244;2023-11-18T06:37:40;4.70;99.90
2447;DHT22;26430;48.818;9.244;2023-11-18T06:40:06;4.60;99.90
2447;DHT22;26430;48.818;9.244;2023-11-18T06:42:44;4.60;99.90
2447;DHT22;26430;48.818;9.244;2023-11-18T06:45:14;4.50;99.90
2447;DHT22;26430;48.818;9.244;2023-11-18T06:47:40;4.50;99.90
2447;DHT22;26430;48.818;9.244;2023-11-18T06:50:10;4.70;99.90
2447;DHT22;26430;48.818;9.244;2023-11-18T06:52:41;4.80;99.90
2447;DHT22;26430;48.818;9.244;2023-11-18T06:55:10;4.80;99.90
2447;DHT22;26430;48.818;9.244;2023-11-18T06:57:36;4.90;99.90
2447;DHT22;26430;48.818;9.244;2023-11-18T07:00:03;4.70;99.90
2447;DHT22;26430;48.818;9.244;2023-11-18T07:02:33;4.60;99.90
2447;DHT22;26430;48.818;9.244;2023-11-18T07:04:59;4.70;99.90
2447;DHT22;26430;48.818;9.244;2023-11-18T07:07:24;4.60;99.90
2447;DHT22;26430;48.818;9.244;2023-11-18T07:09:50;4.60;99.90
2447;DHT22;26430;48.818;9.244;2023-11-18T07:12:17;4.70;99.90
2447;DHT22;26430;48.818;9.244;2023-11-18T07:14:44;4.80;99.90
2447;DHT22;26430;48.818;9.244;2023-11-18T07:17:10;4.90;99.90
2447;DHT22;26430;48.818;9.244;2023-11-18T07:19:36;4.90;99.90
2447;DHT22;26430;48.818;9.244;2023-11-18T07:22:01;4.90;99.90
2447;DHT22;26430;48.818;9.244;2023-11-18T07:24:27;5.00;99.90
2447;DHT22;26430;48.818;9.244;2023-11-18T07:26:55;4.90;99.90
2447;DHT22;26430;48.818;9.244;2023-11-18T07:29:20;5.00;99.90
2447;DHT22;26430;48.818;9.244;2023-11-18T07:31:48;5.10;99.90
2447;DHT22;26430;48.818;9.244;2023-11-18T07:34:14;5.00;99.90
2447;DHT22;26430;48.818;9.244;2023-11-18T07:36:40;5.00;99.90
2447;DHT22;26430;48.818;9.244;2023-11-18T07:39:06;5.00;99.90
2447;DHT22;26430;48.818;9.244;2023-11-18T07:41:41;5.00;99.90
2447;DHT22;26430;48.818;9.244;2023-11-18T07:44:07;5.10;99.90
2447;DHT22;26430;48.818;9.244;2023-11-18T07:46:36;5.10;99.90
2447;DHT22;26430;48.818;9.244;2023-11-18T07:49:04;5.10;99.90
2447;DHT22;26430;48.818;9.244;2023-11-18T07:51:29;5.10;99.90
2447;DHT22;26430;48.818;9.244;2023-11-18T07:53:55;5.10;99.90
2447;DHT22;26430;48.818;9.244;2023-11-18T07:56:21;5.20;99.90
2447;DHT22;26430;48.818;9.244;2023-11-18T07:58:49;5.30;99.90
2447;DHT22;26430;48.818;9.244;2023-11-18T08:01:17;5.40;99.90
2447;DHT22;26430;48.818;9.244;2023-11-18T08:03:43;5.40;99.90
2447;DHT22;26430;48.818;9.244;2023-11-18T08:06:11;5.50;99.90
2447;DHT22;26430;48.818;9.244;2023-11-18T08:08:37;5.60;99.90
2447;DHT22;26430;48.818;9.244;2023-11-18T08:11:04;5.70;99.90
2447;DHT22;26430;48.818;9.244;2023-11-18T08:13:30;5.70;99.90
2447;DHT22;26430;48.818;9.244;2023-11-18T08:15:56;5.70;99.90
2447;DHT22;26430;48.818;9.244;2023-11-18T08:18:23;5.70;99.90
2447;DHT22;26430;48.818;9.244;2023-11-18T08:20:49;5.80;99.90
2447;DHT22;26430;48.818;9.244;2023-11-18T08:23:16;5.80;99.90
2447;DHT22;26430;48.818;9.244;2023-11-18T08:25:41;5.90;99.90
2447;DHT22;26430;48.818;9.244;2023-11-18T08:28:08;6.00;99.90
2447;DHT22;26430;48.818;9.244;2023-11-18T08:30:37;6.10;99.90
2447;DHT22;26430;48.818;9.244;2023-11-18T08:33:03;6.00;99.90
2447;DHT22;26430;48.818;9.244;2023-11-18T08:35:37;6.10;99.90
2447;DHT22;26430;48.818;9.244;2023-11-18T08:38:03;6.10;99.90
2447;DHT22;26430;48.818;9.244;2023-11-18T08:40:30;6.10;99.90
2447;DHT22;26430;48.818;9.244;2023-11-18T08:42:55;6.10;99.90
2447;DHT22;26430;48.818;9.244;2023-11-18T08:45:26;6.00;99.90
2447;DHT22;26430;48.818;9.244;2023-11-18T08:48:04;6.00;99.90
2447;DHT22;26430;48.818;9.244;2023-11-18T08:50:37;6.10;99.90
2447;DHT22;26430;48.818;9.244;2023-11-18T08:53:05;6.20;99.90
2447;DHT22;26430;48.818;9.244;2023-11-18T08:55:32;6.10;99.90
2447;DHT22;26430;48.818;9.244;2023-11-18T08:58:16;6.20;99.90
2447;DHT22;26430;48.818;9.244;2023-11-18T09:00:49;6.30;99.90
2447;DHT22;26430;48.818;9.244;2023-11-18T09:03:21;6.20;99.90
2447;DHT22;26430;48.818;9.244;2023-11-18T09:06:06;6.30;99.90
2447;DHT22;26430;48.818;9.244;2023-11-18T09:08:41;6.30;99.90
2447;DHT22;26430;48.818;9.244;2023-11-18T09:11:15;6.30;99.90
2447;DHT22;26430;48.818;9.244;2023-11-18T09:13:45;6.30;99.90
2447;DHT22;26430;48.818;9.244;2023-11-18T09:16:13;6.60;99.90
2447;DHT22;26430;48.818;9.244;2023-11-18T09:18:40;6.30;99.90
2447;DHT22;26430;48.818;9.244;2023-11-18T09:21:06;6.60;99.90
2447;DHT22;26430;48.818;9.244;2023-11-18T09:23:34;6.70;99.90
2447;DHT22;26430;48.818;9.244;2023-11-18T09:26:03;6.90;99.90
2447;DHT22;26430;48.818;9.244;2023-11-18T09:28:33;7.00;99.90
2447;DHT22;26430;48.818;9.244;2023-11-18T09:31:00;7.20;99.90
2447;DHT22;26430;48.818;9.244;2023-11-18T09:33:29;7.20;99.90
2447;DHT22;26430;48.818;9.244;2023-11-18T09:36:01;7.20;99.90
2447;DHT22;26430;48.818;9.244;2023-11-18T09:38:31;7.30;99.90
2447;DHT22;26430;48.818;9.244;2023-11-18T09:40:59;7.20;99.90
2447;DHT22;26430;48.818;9.244;2023-11-18T09:43:31;7.40;99.90
2447;DHT22;26430;48.818;9.244;2023-11-18T09:46:04;7.00;99.90
2447;DHT22;26430;48.818;9.244;2023-11-18T09:48:49;7.20;99.90
2447;DHT22;26430;48.818;9.244;2023-11-18T09:51:28;7.40;99.90
2447;DHT22;26430;48.818;9.244;2023-11-18T09:54:05;7.30;99.90
2447;DHT22;26430;48.818;9.244;2023-11-18T09:56:53;7.30;99.90
2447;DHT22;26430;48.818;9.244;2023-11-18T09:59:32;7.20;99.90
2447;DHT22;26430;48.818;9.244;2023-11-18T10:02:02;7.30;99.90
2447;DHT22;26430;48.818;9.244;2023-11-18T10:04:29;7.60;99.90
2447;DHT22;26430;48.818;9.244;2023-11-18T10:06:57;7.60;99.90
2447;DHT22;26430;48.818;9.244;2023-11-18T10:09:26;7.40;99.90
2447;DHT22;26430;48.818;9.244;2023-11-18T10:12:03;7.50;99.90
2447;DHT22;26430;48.818;9.244;2023-11-18T10:14:33;7.50;99.90
2447;DHT22;26430;48.818;9.244;2023-11-18T10:17:03;7.50;99.90
2447;DHT22;26430;48.818;9.244;2023-11-18T10:19:54;7.40;99.90
2447;DHT22;26430;48.818;9.244;2023-11-18T10:22:29;7.40;99.90
2447;DHT22;26430;48.818;9.244;2023-11-18T10:24:58;7.30;99.90
2447;DHT22;26430;48.818;9.244;2023-11-18T10:27:27;7.40;99.90
2447;DHT22;26430;48.818;9.244;2023-11-18T10:30:11;7.50;99.90
2447;DHT22;26430;48.818;9.244;2023-11-18T10:33:00;7.50;99.90
2447;DHT22;26430;48.818;9.244;2023-11-18T10:35:37;7.40;99.90
2447;DHT22;26430;48.818;9.244;2023-11-18T10:38:03;7.60;99.90
2447;DHT22;26430;48.818;9.244;2023-11-18T10:40:32;7.40;99.90
2447;DHT22;26430;48.818;9.244;2023-11-18T10:43:05;7.50;99.90
2447;DHT22;26430;48.818;9.244;2023-11-18T10:45:35;7.50;99.90
2447;DHT22;26430;48.818;9.244;2023-11-18T10:48:07;7.50;99.90
2447;DHT22;26430;48.818;9.244;2023-11-18T10:50:33;7.60;99.90
2447;DHT22;26430;48.818;9.244;2023-11-18T10:53:02;7.50;99.90
2447;DHT22;26430;48.818;9.244;2023-11-18T10:55:36;7.70;99.90
2447;DHT22;26430;48.818;9.244;2023-11-18T10:58:02;7.80;99.90
2447;DHT22;26430;48.818;9.244;2023-11-18T11:03:15;7.60;99.90
2447;DHT22;26430;48.818;9.244;2023-11-18T11:05:41;7.80;99.90
2447;DHT22;26430;48.818;9.244;2023-11-18T11:08:09;7.80;99.90
2447;DHT22;26430;48.818;9.244;2023-11-18T11:10:39;7.90;99.90
2447;DHT22;26430;48.818;9.244;2023-11-18T11:13:07;8.00;99.90
2447;DHT22;26430;48.818;9.244;2023-11-18T11:15:40;8.00;99.90
2447;DHT22;26430;48.818;9.244;2023-11-18T11:18:08;8.10;99.90
2447;DHT22;26430;48.818;9.244;2023-11-18T11:20:44;8.00;99.90
2447;DHT22;26430;48.818;9.244;2023-11-18T11:26:35;8.20;99.90
2447;DHT22;26430;48.818;9.244;2023-11-18T11:34:26;8.00;99.90
2447;DHT22;26430;48.818;9.244;2023-11-18T11:36:56;8.00;99.90
2447;DHT22;26430;48.818;9.244;2023-11-18T11:39:24;8.00;99.90
2447;DHT22;26430;48.818;9.244;2023-11-18T11:41:55;8.00;99.90
2447;DHT22;26430;48.818;9.244;2023-11-18T11:44:22;8.00;99.90
2447;DHT22;26430;48.818;9.244;2023-11-18T11:46:55;8.00;99.90
2447;DHT22;26430;48.818;9.244;2023-11-18T11:49:22;8.10;99.90
2447;DHT22;26430;48.818;9.244;2023-11-18T11:54:31;8.20;99.90
2447;DHT22;26430;48.818;9.244;2023-11-18T11:57:02;8.20;99.90
2447;DHT22;26430;48.818;9.244;2023-11-18T12:02:21;8.20;99.90
2447;DHT22;26430;48.818;9.244;2023-11-18T12:04:54;8.20;99.90
2447;DHT22;26430;48.818;9.244;2023-11-18T12:07:21;8.30;99.90
2447;DHT22;26430;48.818;9.244;2023-11-18T12:09:49;8.40;99.90
2447;DHT22;26430;48.818;9.244;2023-11-18T12:12:21;8.30;99.90
2447;DHT22;26430;48.818;9.244;2023-11-18T12:14:50;8.40;99.90
2447;DHT22;26430;48.818;9.244;2023-11-18T12:17:17;8.40;99.90
2447;DHT22;26430;48.818;9.244;2023-11-18T12:19:50;8.40;99.90
2447;DHT22;26430;48.818;9.244;2023-11-18T12:22:23;8.40;99.90
2447;DHT22;26430;48.818;9.244;2023-11-18T12:27:43;8.30;99.90
2447;DHT22;26430;48.818;9.244;2023-11-18T12:33:02;8.40;99.90
2447;DHT22;26430;48.818;9.244;2023-11-18T12:36:17;8.40;99.90
2447;DHT22;26430;48.818;9.244;2023-11-18T12:39:01;8.40;99.90
2447;DHT22;26430;48.818;9.244;2023-11-18T12:41:42;8.30;99.90
2447;DHT22;26430;48.818;9.244;2023-11-18T12:47:00;8.30;99.90
2447;DHT22;26430;48.818;9.244;2023-11-18T12:49:43;8.30;99.90
2447;DHT22;26430;48.818;9.244;2023-11-18T12:52:10;8.20;99.90
2447;DHT22;26430;48.818;9.244;2023-11-18T12:54:36;8.20;99.90
2447;DHT22;26430;48.818;9.244;2023-11-18T12:57:09;8.20;99.90
2447;DHT22;26430;48.818;9.244;2023-11-18T12:59:35;8.20;99.90
2447;DHT22;26430;48.818;9.244;2023-11-18T13:02:02;8.20;99.90
2447;DHT22;26430;48.818;9.244;2023-11-18T13:04:32;8.40;99.90
2447;DHT22;26430;48.818;9.244;2023-11-18T13:06:59;8.40;99.90
2447;DHT22;26430;48.818;9.244;2023-11-18T13:09:26;8.40;99.90
2447;DHT22;26430;48.818;9.244;2023-11-18T13:11:58;8.40;99.90
2447;DHT22;26430;48.818;9.244;2023-11-18T13:14:25;8.30;99.90
2447;DHT22;26430;48.818;9.244;2023-11-18T13:16:54;8.20;99.90
2447;DHT22;26430;48.818;9.244;2023-11-18T13:19:28;8.20;99.90
2447;DHT22;26430;48.818;9.244;2023-11-18T13:22:01;8.20;99.90
2447;DHT22;26430;48.818;9.244;2023-11-18T13:24:29;8.20;99.90
2447;DHT22;26430;48.818;9.244;2023-11-18T13:26:56;8.20;99.90
2447;DHT22;26430;48.818;9.244;2023-11-18T13:29:23;8.20;99.90
2447;DHT22;26430;48.818;9.244;2023-11-18T13:31:50;8.20;99.90
2447;DHT22;26430;48.818;9.244;2023-11-18T13:34:19;8.20;99.90
2447;DHT22;26430;48.818;9.244;2023-11-18T13:36:47;8.10;99.90
2447;DHT22;26430;48.818;9.244;2023-11-18T13:39:19;8.10;99.90
2447;DHT22;26430;48.818;9.244;2023-11-18T13:41:48;8.10;99.90
2447;DHT22;26430;48.818;9.244;2023-11-18T13:44:36;8.10;99.90
2447;DHT22;26430;48.818;9.244;2023-11-18T13:47:07;8.10;99.90
2447;DHT22;26430;48.818;9.244;2023-11-18T13:49:33;8.10;99.90
2447;DHT22;26430;48.818;9.244;2023-11-18T13:52:00;8.10;99.90
2447;DHT22;26430;48.818;9.244;2023-11-18T13:54:28;8.20;99.90
2447;DHT22;26430;48.818;9.244;2023-11-18T13:56:58;8.20;99.90
2447;DHT22;26430;48.818;9.244;2023-11-18T13:59:25;8.20;99.90
2447;DHT22;26430;48.818;9.244;2023-11-18T14:01:55;8.20;99.90
2447;DHT22;26430;48.818;9.244;2023-11-18T14:04:27;8.20;99.90
2447;DHT22;26430;48.818;9.244;2023-11-18T14:06:56;8.20;99.90
2447;DHT22;26430;48.818;9.244;2023-11-18T14:09:22;8.20;99.90
2447;DHT22;26430;48.818;9.244;2023-11-18T14:11:51;8.20;99.90
2447;DHT22;26430;48.818;9.244;2023-11-18T14:14:17;8.20;99.90
2447;DHT22;26430;48.818;9.244;2023-11-18T14:16:43;8.20;99.90
2447;DHT22;26430;48.818;9.244;2023-11-18T14:19:09;8.20;99.90
2447;DHT22;26430;48.818;9.244;2023-11-18T14:21:36;8.20;99.90
2447;DHT22;26430;48.818;9.244;2023-11-18T14:24:02;8.20;99.90
2447;DHT22;26430;48.818;9.244;2023-11-18T14:26:28;8.20;99.90
2447;DHT22;26430;48.818;9.244;2023-11-18T14:28:56;8.20;99.90
2447;DHT22;26430;48.818;9.244;2023-11-18T14:31:22;8.20;99.90
2447;DHT22;26430;48.818;9.244;2023-11-18T14:33:50;8.20;99.90
2447;DHT22;26430;48.818;9.244;2023-11-18T14:36:17;8.20;99.90
2447;DHT22;26430;48.818;9.244;2023-11-18T14:38:42;8.20;99.90
2447;DHT22;26430;48.818;9.244;2023-11-18T14:41:10;8.20;99.90
2447;DHT22;26430;48.818;9.244;2023-11-18T14:43:36;8.10;99.90
2447;DHT22;26430;48.818;9.244;2023-11-18T14:46:01;8.10;99.90
2447;DHT22;26430;48.818;9.244;2023-11-18T14:48:29;8.10;99.90
2447;DHT22;26430;48.818;9.244;2023-11-18T14:50:54;8.20;99.90
2447;DHT22;26430;48.818;9.244;2023-11-18T14:53:22;8.10;99.90
2447;DHT22;26430;48.818;9.244;2023-11-18T14:55:48;8.10;99.90
2447;DHT22;26430;48.818;9.244;2023-11-18T14:58:13;8.10;99.90
2447;DHT22;26430;48.818;9.244;2023-11-18T15:00:39;8.10;99.90
2447;DHT22;26430;48.818;9.244;2023-11-18T15:03:05;8.10;99.90
2447;DHT22;26430;48.818;9.244;2023-11-18T15:05:31;8.10;99.90
2447;DHT22;26430;48.818;9.244;2023-11-18T15:07:57;8.10;99.90
2447;DHT22;26430;48.818;9.244;2023-11-18T15:10:26;8.00;99.90
2447;DHT22;26430;48.818;9.244;2023-11-18T15:12:56;8.00;99.90
2447;DHT22;26430;48.818;9.244;2023-11-18T15:15:27;8.00;99.90
2447;DHT22;26430;48.818;9.244;2023-11-18T15:18:05;7.90;99.90
2447;DHT22;26430;48.818;9.244;2023-11-18T15:20:42;7.80;99.90
2447;DHT22;26430;48.818;9.244;2023-11-18T15:23:10;7.80;99.90
2447;DHT22;26430;48.818;9.244;2023-11-18T15:25:37;7.90;99.90
2447;DHT22;26430;48.818;9.244;2023-11-18T15:28:02;7.90;99.90
2447;DHT22;26430;48.818;9.244;2023-11-18T15:30:29;7.90;99.90
2447;DHT22;26430;48.818;9.244;2023-11-18T15:32:55;7.90;99.90
2447;DHT22;26430;48.818;9.244;2023-11-18T15:35:21;7.80;99.90
2447;DHT22;26430;48.818;9.244;2023-11-18T15:37:47;7.90;99.90
2447;DHT22;26430;48.818;9.244;2023-11-18T15:40:14;7.80;99.90
2447;DHT22;26430;48.818;9.244;2023-11-18T15:42:45;7.80;99.90
2447;DHT22;26430;48.818;9.244;2023-11-18T15:45:23;7.80;99.90
2447;DHT22;26430;48.818;9.244;2023-11-18T15:47:54;7.80;99.90
2447;DHT22;26430;48.818;9.244;2023-11-18T15:50:20;7.80;99.90
2447;DHT22;26430;48.818;9.244;2023-11-18T15:52:50;7.80;99.90
2447;DHT22;26430;48.818;9.244;2023-11-18T15:55:17;7.90;99.90
2447;DHT22;26430;48.818;9.244;2023-11-18T15:57:51;7.90;99.90
2447;DHT22;26430;48.818;9.244;2023-11-18T16:00:25;7.90;99.90
2447;DHT22;26430;48.818;9.244;2023-11-18T16:02:56;7.80;99.90
2447;DHT22;26430;48.818;9.244;2023-11-18T16:05:26;7.80;99.90
2447;DHT22;26430;48.818;9.244;2023-11-18T16:07:53;7.80;99.90
2447;DHT22;26430;48.818;9.244;2023-11-18T16:10:23;7.80;99.90
2447;DHT22;26430;48.818;9.244;2023-11-18T16:12:57;7.80;99.90
2447;DHT22;26430;48.818;9.244;2023-11-18T16:15:25;7.90;99.90
2447;DHT22;26430;48.818;9.244;2023-11-18T16:17:52;7.90;99.90
2447;DHT22;26430;48.818;9.244;2023-11-18T16:20:20;7.90;99.90
2447;DHT22;26430;48.818;9.244;2023-11-18T16:22:50;7.90;99.90
2447;DHT22;26430;48.818;9.244;2023-11-18T16:25:20;7.90;99.90
2447;DHT22;26430;48.818;9.244;2023-11-18T16:27:51;8.00;99.90
2447;DHT22;26430;48.818;9.244;2023-11-18T16:30:19;8.00;99.90
2447;DHT22;26430;48.818;9.244;2023-11-18T16:32:53;7.90;99.90
2447;DHT22;26430;48.818;9.244;2023-11-18T16:35:20;7.90;99.90
2447;DHT22;26430;48.818;9.244;2023-11-18T16:37:46;7.90;99.90